Time;durP1;ratioP1;P1;durP2;ratioP2;P2;SDS_P1;SDS_P2;PMS_P1;PMS_P2;Temp;Humidity;BMP_temperature;BMP_pressure;BME280_temperature;BME280_humidity;BME280_pressure;Samples;Min_cycle;Max_cycle;Signal;HPM_P1;HPM_P2
2022/09/01 00:02:20;;;;;;;3.15;2.40;;;14.60;99.90;;;;;;5053442;28;20052;-59
2022/09/01 00:04:46;;;;;;;2.80;2.08;;;14.60;99.90;;;;;;5070670;28;20088;-55
2022/09/01 00:07:13;;;;;;;2.45;1.83;;;14.60;99.90;;;;;;5070577;28;20051;-56
2022/09/01 00:09:39;;;;;;;7.55;3.05;;;14.60;99.90;;;;;;5071127;28;20131;-55
2022/09/01 00:12:08;;;;;;;4.32;1.50;;;14.60;99.90;;;;;;5070952;28;20139;-60
2022/09/01 00:14:36;;;;;;;1.70;1.60;;;14.60;99.90;;;;;;5069844;28;20151;-59
2022/09/01 00:17:06;;;;;;;1.50;1.40;;;14.50;99.90;;;;;;5070611;28;20453;-55
2022/09/01 00:19:32;;;;;;;1.30;1.20;;;14.50;99.90;;;;;;5050526;28;20372;-56
2022/09/01 00:21:59;;;;;;;5.38;1.42;;;14.50;99.90;;;;;;5050407;28;20048;-55
2022/09/01 00:24:26;;;;;;;1.45;1.17;;;14.40;99.90;;;;;;5050437;28;20060;-55
2022/09/01 00:26:53;;;;;;;1.45;1.20;;;14.40;99.90;;;;;;5050559;28;20044;-59
2022/09/01 00:29:19;;;;;;;1.63;1.30;;;14.30;99.90;;;;;;5051200;28;20041;-59
2022/09/01 00:31:45;;;;;;;1.30;0.80;;;14.30;99.90;;;;;;5070639;28;20044;-59
2022/09/01 00:34:11;;;;;;;1.40;0.90;;;14.30;99.90;;;;;;5070648;28;20459;-59
2022/09/01 00:36:36;;;;;;;1.30;0.90;;;14.30;99.90;;;;;;5063354;28;20048;-56
2022/09/01 00:39:04;;;;;;;1.08;0.73;;;14.20;99.90;;;;;;5050538;28;20049;-55
2022/09/01 00:41:32;;;;;;;1.25;0.77;;;14.20;99.90;;;;;;5050278;28;20387;-56
2022/09/01 00:44:04;;;;;;;3.10;0.70;;;14.20;99.90;;;;;;5050679;28;20044;-55
2022/09/01 00:46:36;;;;;;;2.15;1.08;;;14.10;99.90;;;;;;5070389;28;20082;-56
2022/09/01 00:49:08;;;;;;;1.00;0.70;;;14.10;99.90;;;;;;5070295;28;20097;-56
2022/09/01 00:51:37;;;;;;;1.02;0.60;;;14.00;99.90;;;;;;5070081;28;20383;-56
2022/09/01 00:54:05;;;;;;;0.85;0.40;;;14.40;99.90;;;;;;5070238;28;20055;-55
2022/09/01 00:56:33;;;;;;;6.03;0.75;;;14.10;99.90;;;;;;5069962;28;20473;-56
2022/09/01 00:58:59;;;;;;;1.25;0.85;;;14.10;99.90;;;;;;5069810;28;20044;-56
2022/09/01 01:01:26;;;;;;;1.02;0.90;;;14.00;99.90;;;;;;5052039;28;20052;-56
2022/09/01 01:03:52;;;;;;;1.25;0.77;;;14.10;99.90;;;;;;5069757;28;20131;-56
2022/09/01 01:06:22;;;;;;;1.85;0.90;;;14.00;99.90;;;;;;5069921;28;20059;-55
2022/09/01 01:08:59;;;;;;;1.27;0.50;;;14.00;99.90;;;;;;5069708;28;20299;-56
2022/09/01 01:11:28;;;;;;;0.90;0.60;;;14.00;99.90;;;;;;5070037;28;20060;-55
2022/09/01 01:14:04;;;;;;;0.73;0.68;;;14.00;99.90;;;;;;5069302;28;20048;-55
2022/09/01 01:16:31;;;;;;;1.02;0.70;;;13.90;99.90;;;;;;5069168;28;20052;-59
2022/09/01 01:18:57;;;;;;;2.17;0.70;;;13.90;99.90;;;;;;5053487;28;20060;-55
2022/09/01 01:24:30;;;;;;;2.05;0.90;;;13.90;99.90;;;;;;5049376;28;20137;-59
2022/09/01 01:26:58;;;;;;;1.20;0.70;;;14.00;99.90;;;;;;5049379;28;20059;-56
2022/09/01 01:29:32;;;;;;;0.98;0.70;;;13.90;99.90;;;;;;5055622;28;20072;-55
2022/09/01 01:31:59;;;;;;;2.75;0.70;;;13.90;99.90;;;;;;5069265;28;20079;-56
2022/09/01 01:34:25;;;;;;;0.93;0.68;;;13.90;99.90;;;;;;5069514;28;20521;-55
2022/09/01 01:36:51;;;;;;;1.67;0.70;;;13.90;99.90;;;;;;5060742;28;20037;-55
2022/09/01 01:39:24;;;;;;;3.10;0.95;;;13.90;99.90;;;;;;5049040;28;20041;-56
2022/09/01 01:41:51;;;;;;;0.90;0.60;;;13.90;99.90;;;;;;5049202;28;20542;-55
2022/09/01 01:44:21;;;;;;;2.25;0.65;;;13.90;99.90;;;;;;5054996;28;20049;-56
2022/09/01 01:46:50;;;;;;;2.35;1.00;;;13.80;99.90;;;;;;5069231;28;20048;-56
2022/09/01 01:49:19;;;;;;;0.63;0.63;;;13.80;99.90;;;;;;5068907;28;20049;-56
2022/09/01 01:51:46;;;;;;;0.90;0.50;;;13.90;99.90;;;;;;5069229;28;20052;-56
2022/09/01 01:54:14;;;;;;;1.63;0.90;;;13.90;99.90;;;;;;5069359;28;20049;-56
2022/09/01 01:56:40;;;;;;;1.13;0.85;;;13.90;99.90;;;;;;5068685;28;20048;-55
2022/09/01 01:59:10;;;;;;;0.60;0.60;;;13.90;99.90;;;;;;5068272;28;20530;-56
2022/09/01 02:01:37;;;;;;;1.27;0.80;;;13.80;99.90;;;;;;5068683;28;20102;-55
2022/09/01 02:04:04;;;;;;;0.50;0.50;;;13.90;99.90;;;;;;5069003;28;20052;-55
2022/09/01 02:06:33;;;;;;;0.90;0.52;;;13.90;99.90;;;;;;5068611;28;20052;-55
2022/09/01 02:09:02;;;;;;;2.47;0.65;;;13.90;99.90;;;;;;5068541;28;20486;-55
2022/09/01 02:11:32;;;;;;;3.97;0.55;;;13.90;99.90;;;;;;5068796;28;20044;-55
2022/09/01 02:13:59;;;;;;;3.00;0.80;;;13.90;99.90;;;;;;5068302;28;20044;-55
2022/09/01 02:16:29;;;;;;;9.40;1.30;;;13.90;99.90;;;;;;5068113;28;20053;-56
2022/09/01 02:18:55;;;;;;;0.80;0.80;;;14.00;99.90;;;;;;5052938;28;20110;-55
2022/09/01 02:21:23;;;;;;;1.33;0.70;;;13.90;99.90;;;;;;5048654;28;20490;-56
2022/09/01 02:24:01;;;;;;;0.70;0.70;;;14.00;99.90;;;;;;5060352;28;20052;-55
2022/09/01 02:26:41;;;;;;;0.68;0.68;;;13.90;99.90;;;;;;5068538;28;20444;-55
2022/09/01 02:29:17;;;;;;;0.70;0.70;;;14.00;99.90;;;;;;5050192;28;20511;-57
2022/09/01 02:31:45;;;;;;;0.70;0.68;;;14.00;99.90;;;;;;5068603;28;20059;-55
2022/09/01 02:34:12;;;;;;;0.98;0.90;;;14.00;99.90;;;;;;5049598;28;20055;-57
2022/09/01 02:36:46;;;;;;;0.95;0.70;;;14.00;99.90;;;;;;5060766;28;20076;-56
2022/09/01 02:39:34;;;;;;;2.42;0.80;;;14.00;99.90;;;;;;5048325;28;20045;-56
2022/09/01 02:42:00;;;;;;;1.00;0.60;;;14.00;99.90;;;;;;5048471;28;20080;-55
2022/09/01 02:44:27;;;;;;;0.77;0.52;;;14.00;99.90;;;;;;5060383;28;20142;-55
2022/09/01 02:46:53;;;;;;;2.67;0.70;;;14.10;99.90;;;;;;5050066;28;20507;-56
2022/09/01 02:49:27;;;;;;;0.77;0.68;;;14.00;99.90;;;;;;5050420;28;20049;-55
2022/09/01 02:51:56;;;;;;;1.02;0.80;;;14.00;99.90;;;;;;5068109;28;20074;-56
2022/09/01 02:54:23;;;;;;;3.33;1.00;;;14.10;99.90;;;;;;5068058;28;20113;-56
2022/09/01 02:56:53;;;;;;;0.95;0.70;;;14.00;99.90;;;;;;5066906;28;20572;-56
2022/09/01 02:59:21;;;;;;;1.08;0.95;;;14.00;99.90;;;;;;5067259;28;20049;-55
2022/09/01 03:01:48;;;;;;;0.77;0.77;;;14.00;99.90;;;;;;5067664;28;20498;-55
2022/09/01 03:04:16;;;;;;;2.20;0.95;;;14.00;99.90;;;;;;5068119;28;20044;-55
2022/09/01 03:06:42;;;;;;;4.20;1.10;;;14.00;99.90;;;;;;5067893;28;20048;-55
2022/09/01 03:09:11;;;;;;;0.90;0.90;;;14.00;99.90;;;;;;5067869;28;20448;-55
2022/09/01 03:11:42;;;;;;;0.82;0.80;;;14.00;99.90;;;;;;5067622;28;20044;-55
2022/09/01 03:14:08;;;;;;;2.67;0.90;;;14.00;99.90;;;;;;5068034;28;20088;-59
2022/09/01 03:16:36;;;;;;;4.03;0.95;;;14.00;99.90;;;;;;5067337;28;20616;-56
2022/09/01 03:19:02;;;;;;;1.55;0.95;;;14.00;99.90;;;;;;5067494;28;20040;-57
2022/09/01 03:21:30;;;;;;;0.60;0.60;;;14.00;99.90;;;;;;5068026;28;20048;-58
2022/09/01 03:23:57;;;;;;;0.80;0.80;;;14.00;99.90;;;;;;5067058;28;20563;-58
2022/09/01 03:26:23;;;;;;;0.80;0.80;;;14.00;99.90;;;;;;5067963;28;20048;-60
2022/09/01 03:28:51;;;;;;;0.80;0.65;;;13.90;99.90;;;;;;5067771;28;20397;-56
2022/09/01 03:31:17;;;;;;;1.52;1.42;;;13.90;99.90;;;;;;5067500;28;20084;-57
2022/09/01 03:33:43;;;;;;;1.17;1.08;;;13.90;99.90;;;;;;5065976;28;20059;-56
2022/09/01 03:36:17;;;;;;;1.92;1.15;;;13.90;99.90;;;;;;5066538;28;20032;-56
2022/09/01 03:38:47;;;;;;;;;;;13.90;99.90;;;;;;5067593;28;20521;-56
2022/09/01 03:41:16;;;;;;;0.90;0.90;;;13.80;99.90;;;;;;5067193;28;19924;-60
2022/09/01 03:43:43;;;;;;;0.80;0.77;;;13.70;99.90;;;;;;5067890;28;20056;-59
2022/09/01 03:46:11;;;;;;;3.45;1.08;;;13.70;99.90;;;;;;5067079;28;20383;-56
2022/09/01 03:48:37;;;;;;;2.72;1.00;;;13.60;99.90;;;;;;5067546;28;20052;-59
2022/09/01 03:51:04;;;;;;;0.93;0.90;;;13.60;99.90;;;;;;5066955;28;20052;-57
2022/09/01 03:53:35;;;;;;;0.88;0.88;;;13.60;99.90;;;;;;5067156;28;20045;-59
2022/09/01 03:56:02;;;;;;;2.40;1.40;;;13.60;99.90;;;;;;5067378;28;20044;-58
2022/09/01 03:58:29;;;;;;;1.10;0.98;;;13.50;99.90;;;;;;5067700;28;20174;-60
2022/09/01 04:00:59;;;;;;;1.35;1.00;;;13.50;99.90;;;;;;5049223;28;20125;-57
2022/09/01 04:03:26;;;;;;;2.58;1.00;;;13.40;99.90;;;;;;5067097;28;20053;-55
2022/09/01 04:05:53;;;;;;;0.93;0.82;;;13.40;99.90;;;;;;5066790;28;20421;-56
2022/09/01 04:08:25;;;;;;;2.35;1.35;;;13.40;99.90;;;;;;5068413;28;20048;-55
2022/09/01 04:10:52;;;;;;;1.55;1.02;;;13.30;99.90;;;;;;5053022;28;20083;-55
2022/09/01 04:13:22;;;;;;;2.42;1.10;;;13.30;99.90;;;;;;5071017;28;20040;-55
2022/09/01 04:15:49;;;;;;;0.80;0.80;;;13.30;99.90;;;;;;5070874;28;20044;-56
2022/09/01 04:18:22;;;;;;;0.90;0.85;;;13.20;99.90;;;;;;5070706;28;20401;-56
2022/09/01 04:20:56;;;;;;;1.77;1.07;;;13.30;99.90;;;;;;5070193;28;20048;-59
2022/09/01 04:23:25;;;;;;;;;;;13.20;99.90;;;;;;5071096;28;20063;-60
2022/09/01 04:26:07;;;;;;;5.18;1.60;;;13.10;99.90;;;;;;5070524;28;19924;-59
2022/09/01 04:28:36;;;;;;;2.50;2.03;;;13.10;99.90;;;;;;5070571;28;20083;-59
2022/09/01 04:31:04;;;;;;;1.98;1.17;;;13.00;99.90;;;;;;5070654;28;20044;-59
2022/09/01 04:33:37;;;;;;;1.83;1.15;;;13.00;99.90;;;;;;5070804;28;20049;-60
2022/09/01 04:36:26;;;;;;;1.33;1.20;;;13.00;99.90;;;;;;5079136;28;20087;-60
2022/09/01 04:38:59;;;;;;;1.23;0.98;;;13.00;99.90;;;;;;5052337;28;20040;-60
2022/09/01 04:41:29;;;;;;;1.98;1.35;;;12.90;99.90;;;;;;5070573;28;20052;-59
2022/09/01 04:43:56;;;;;;;1.80;1.08;;;12.90;99.90;;;;;;5070197;28;20052;-59
2022/09/01 04:46:27;;;;;;;2.42;1.30;;;13.00;99.90;;;;;;5070443;28;20044;-56
2022/09/01 04:48:53;;;;;;;2.55;1.63;;;13.00;99.90;;;;;;5070305;28;20473;-56
2022/09/01 04:51:19;;;;;;;1.60;1.50;;;12.90;99.90;;;;;;5069500;28;20109;-56
2022/09/01 04:53:47;;;;;;;1.63;1.20;;;13.00;99.90;;;;;;5070016;28;20051;-55
2022/09/01 04:56:20;;;;;;;3.72;1.42;;;13.00;99.90;;;;;;5070165;28;20055;-55
2022/09/01 04:58:46;;;;;;;1.83;1.20;;;13.00;99.90;;;;;;5070344;28;20527;-56
2022/09/01 05:01:19;;;;;;;2.65;1.67;;;13.00;99.90;;;;;;5070053;28;20041;-55
2022/09/01 05:03:47;;;;;;;2.55;1.33;;;12.90;99.90;;;;;;5068814;28;20475;-56
2022/09/01 05:06:18;;;;;;;2.13;1.50;;;13.00;99.90;;;;;;5049806;28;20045;-55
2022/09/01 05:08:45;;;;;;;2.13;1.23;;;13.10;99.90;;;;;;5067011;28;20049;-56
2022/09/01 05:11:15;;;;;;;1.92;1.58;;;13.10;99.90;;;;;;5069712;28;20142;-55
2022/09/01 05:13:46;;;;;;;1.77;1.17;;;13.10;99.90;;;;;;5069990;28;20045;-55
2022/09/01 05:16:15;;;;;;;2.20;1.52;;;13.20;99.90;;;;;;5069907;28;20044;-56
2022/09/01 05:18:46;;;;;;;1.35;1.25;;;13.20;99.90;;;;;;5068546;28;20041;-55
2022/09/01 05:21:15;;;;;;;1.95;1.60;;;13.30;99.90;;;;;;5069651;28;20155;-55
2022/09/01 05:23:42;;;;;;;4.80;1.48;;;13.30;99.90;;;;;;5069285;28;20059;-56
2022/09/01 05:26:16;;;;;;;1.70;1.45;;;13.20;99.90;;;;;;5069253;28;20516;-55
2022/09/01 05:28:43;;;;;;;5.03;1.40;;;13.30;99.90;;;;;;5069678;28;20048;-56
2022/09/01 05:31:09;;;;;;;2.83;1.20;;;13.40;99.90;;;;;;5069513;28;20394;-58
2022/09/01 05:33:35;;;;;;;3.13;1.33;;;13.40;99.90;;;;;;5069081;28;20044;-59
2022/09/01 05:36:07;;;;;;;2.42;1.67;;;13.40;99.90;;;;;;5067208;28;20398;-60
2022/09/01 05:38:33;;;;;;;1.27;1.17;;;13.50;99.90;;;;;;5031508;28;20497;-59
2022/09/01 05:41:07;;;;;;;1.88;1.38;;;13.60;99.90;;;;;;5049631;28;20060;-55
2022/09/01 05:43:34;;;;;;;1.27;1.13;;;13.70;99.90;;;;;;5049600;28;20146;-56
2022/09/01 05:46:02;;;;;;;1.85;1.45;;;13.60;99.90;;;;;;5048806;28;20491;-57
2022/09/01 05:48:30;;;;;;;6.07;1.85;;;13.70;99.90;;;;;;5053398;28;20044;-56
2022/09/01 05:50:58;;;;;;;7.50;1.83;;;13.70;99.90;;;;;;5068788;28;20052;-56
2022/09/01 05:53:27;;;;;;;7.13;2.30;;;13.70;99.90;;;;;;5069332;28;20083;-55
2022/09/01 05:55:55;;;;;;;4.00;1.75;;;13.80;99.90;;;;;;5050712;28;20135;-55
2022/09/01 05:58:25;;;;;;;2.13;1.88;;;13.90;99.90;;;;;;5051381;28;20089;-56
2022/09/01 06:00:53;;;;;;;3.25;2.33;;;13.90;99.90;;;;;;5069025;28;20056;-56
2022/09/01 06:03:20;;;;;;;4.68;1.75;;;14.10;99.90;;;;;;5068714;28;20044;-55
2022/09/01 06:05:51;;;;;;;4.05;1.52;;;14.20;99.90;;;;;;5068607;28;20448;-56
2022/09/01 06:08:19;;;;;;;2.50;1.83;;;14.30;99.90;;;;;;5068676;28;20540;-56
2022/09/01 06:10:45;;;;;;;1.75;1.40;;;14.40;99.90;;;;;;5068850;28;20044;-58
2022/09/01 06:13:14;;;;;;;5.95;1.88;;;14.50;99.90;;;;;;5068825;28;20059;-58
2022/09/01 06:15:41;;;;;;;4.45;2.17;;;14.60;99.90;;;;;;5068812;28;20059;-58
2022/09/01 06:18:11;;;;;;;3.42;1.40;;;14.60;99.90;;;;;;5050250;28;20498;-60
2022/09/01 06:20:42;;;;;;;3.28;2.00;;;14.70;99.90;;;;;;5067876;28;20045;-55
2022/09/01 06:23:13;;;;;;;2.65;2.25;;;14.70;99.90;;;;;;5047842;28;20461;-56
2022/09/01 06:25:42;;;;;;;1.73;1.63;;;14.70;99.90;;;;;;5048298;28;20561;-56
2022/09/01 06:28:11;;;;;;;1.85;1.55;;;14.70;99.90;;;;;;5048311;28;20106;-56
2022/09/01 06:30:37;;;;;;;5.47;1.80;;;14.80;99.90;;;;;;5048057;28;20044;-56
2022/09/01 06:33:08;;;;;;;3.97;1.70;;;14.90;99.90;;;;;;5055604;28;20553;-56
2022/09/01 06:35:35;;;;;;;3.67;1.65;;;15.00;99.90;;;;;;5067157;28;20115;-56
2022/09/01 06:38:01;;;;;;;8.75;2.97;;;15.30;99.90;;;;;;5064720;28;20094;-56
2022/09/01 06:40:27;;;;;;;3.80;1.42;;;15.80;99.90;;;;;;5068410;28;20044;-56
2022/09/01 06:42:53;;;;;;;3.03;1.50;;;16.10;99.90;;;;;;5068044;28;20051;-56
2022/09/01 06:45:22;;;;;;;3.45;1.70;;;16.70;99.90;;;;;;5068167;28;20048;-56
2022/09/01 06:47:49;;;;;;;2.50;1.70;;;16.70;99.90;;;;;;5067789;28;20132;-55
2022/09/01 06:50:20;;;;;;;4.10;1.40;;;17.00;99.90;;;;;;5067773;28;20549;-58
2022/09/01 06:52:49;;;;;;;2.95;1.30;;;17.50;99.90;;;;;;5067560;28;20052;-56
2022/09/01 06:55:15;;;;;;;2.03;1.20;;;17.60;99.90;;;;;;5067835;28;20554;-56
2022/09/01 06:57:44;;;;;;;2.30;1.13;;;17.60;99.90;;;;;;5067517;28;20044;-56
2022/09/01 07:00:19;;;;;;;2.40;1.30;;;18.00;99.90;;;;;;5050225;28;20071;-56
2022/09/01 07:02:47;;;;;;;1.25;0.95;;;18.10;99.90;;;;;;5068053;28;20170;-58
2022/09/01 07:05:17;;;;;;;1.75;1.00;;;18.30;99.90;;;;;;5068144;28;20080;-56
2022/09/01 07:07:56;;;;;;;4.00;1.08;;;18.10;99.90;;;;;;5067672;28;20055;-56
2022/09/01 07:10:24;;;;;;;2.22;1.30;;;18.00;99.90;;;;;;5068034;28;20132;-56
2022/09/01 07:12:58;;;;;;;1.15;1.05;;;17.80;99.90;;;;;;5068139;28;20044;-60
2022/09/01 07:15:24;;;;;;;1.45;1.17;;;17.70;99.90;;;;;;5068415;28;20151;-60
2022/09/01 07:17:52;;;;;;;1.73;1.27;;;17.60;99.90;;;;;;5067481;28;20564;-60
2022/09/01 07:20:21;;;;;;;4.75;1.25;;;17.70;99.90;;;;;;5067644;28;20425;-55
2022/09/01 07:22:47;;;;;;;1.00;0.90;;;17.80;99.90;;;;;;5063726;28;20644;-60
2022/09/01 07:25:13;;;;;;;1.88;1.27;;;17.80;99.90;;;;;;5067317;28;20060;-58
2022/09/01 07:27:44;;;;;;;1.90;0.90;;;18.00;99.90;;;;;;5067371;28;20139;-55
2022/09/01 07:30:10;;;;;;;1.95;1.15;;;18.20;99.90;;;;;;5067771;28;20048;-56
2022/09/01 07:32:38;;;;;;;0.90;0.80;;;18.30;99.90;;;;;;5067333;28;20510;-56
2022/09/01 07:35:07;;;;;;;1.83;1.48;;;18.40;99.90;;;;;;5065073;28;20098;-59
2022/09/01 07:37:36;;;;;;;1.35;0.98;;;18.40;99.90;;;;;;5058833;28;20040;-56
2022/09/01 07:40:09;;;;;;;2.83;1.15;;;18.60;99.90;;;;;;5045634;28;20049;-56
2022/09/01 07:42:38;;;;;;;3.00;1.20;;;18.70;99.90;;;;;;5067728;28;20577;-56
2022/09/01 07:45:07;;;;;;;4.28;1.40;;;18.90;99.90;;;;;;5052659;28;20052;-56
2022/09/01 07:47:35;;;;;;;1.58;1.02;;;19.90;99.90;;;;;;5070277;28;20091;-57
2022/09/01 07:50:07;;;;;;;2.17;0.80;;;20.40;99.90;;;;;;5071052;28;20522;-56
2022/09/01 07:52:35;;;;;;;1.25;0.80;;;20.60;99.90;;;;;;5070513;28;20409;-61
2022/09/01 07:55:02;;;;;;;1.48;0.93;;;20.80;99.90;;;;;;5070415;28;20589;-58
2022/09/01 07:57:28;;;;;;;1.25;0.70;;;21.00;99.90;;;;;;5067889;28;20041;-56
2022/09/01 07:59:54;;;;;;;1.88;0.60;;;21.20;99.90;;;;;;5070832;28;20527;-56
2022/09/01 08:02:21;;;;;;;3.20;1.10;;;21.50;99.90;;;;;;5055986;28;20041;-56
2022/09/01 08:04:47;;;;;;;1.50;0.90;;;21.70;99.90;;;;;;5050943;28;20102;-59
2022/09/01 08:07:14;;;;;;;2.20;0.90;;;21.80;99.90;;;;;;5063574;28;20417;-56
2022/09/01 08:09:40;;;;;;;1.63;0.80;;;22.00;99.90;;;;;;5070766;28;20095;-59
2022/09/01 08:12:07;;;;;;;0.70;0.70;;;22.40;99.90;;;;;;5071004;28;20056;-60
2022/09/01 08:14:33;;;;;;;1.63;0.65;;;22.70;99.90;;;;;;5070774;28;20052;-57
2022/09/01 08:16:59;;;;;;;2.63;0.68;;;22.80;99.90;;;;;;5070600;28;20094;-57
2022/09/01 08:19:24;;;;;;;1.33;0.70;;;23.30;99.90;;;;;;5054507;28;20475;-60
2022/09/01 08:21:50;;;;;;;1.80;0.80;;;23.30;99.90;;;;;;5061785;28;20040;-60
2022/09/01 08:24:15;;;;;;;2.58;0.82;;;23.40;99.90;;;;;;5056178;28;20071;-57
2022/09/01 08:26:41;;;;;;;2.58;0.80;;;23.70;99.90;;;;;;5032495;28;20140;-56
2022/09/01 08:29:07;;;;;;;2.85;1.13;;;23.90;99.90;;;;;;5050492;28;20049;-56
2022/09/01 08:31:34;;;;;;;1.45;0.82;;;24.20;99.90;;;;;;5050139;28;20117;-56
2022/09/01 08:34:00;;;;;;;0.85;0.73;;;24.60;99.90;;;;;;5050349;28;20060;-57
2022/09/01 08:36:26;;;;;;;1.02;0.75;;;25.00;99.90;;;;;;5061368;28;20507;-56
2022/09/01 08:38:52;;;;;;;5.63;1.25;;;24.80;99.90;;;;;;5050207;28;20076;-56
2022/09/01 08:41:25;;;;;;;0.68;0.50;;;25.10;99.60;;;;;;5049896;28;20059;-55
2022/09/01 08:44:24;;;;;;;0.75;0.73;;;25.50;98.90;;;;;;5050370;28;20056;-57
2022/09/01 08:46:56;;;;;;;2.80;0.63;;;25.60;97.80;;;;;;5049910;28;20053;-57
2022/09/01 08:49:24;;;;;;;0.93;0.80;;;25.40;99.10;;;;;;5050371;28;20044;-56
2022/09/01 08:51:56;;;;;;;0.90;0.88;;;26.10;99.40;;;;;;5065288;28;20433;-56
2022/09/01 08:54:49;;;;;;;1.60;0.70;;;26.00;98.70;;;;;;5069593;28;20048;-57
2022/09/01 08:57:31;;;;;;;2.08;0.55;;;26.30;97.00;;;;;;5069712;28;20597;-59
2022/09/01 08:59:57;;;;;;;1.15;0.70;;;26.40;97.70;;;;;;5069326;28;20044;-60
2022/09/01 09:02:43;;;;;;;1.77;0.70;;;26.60;98.30;;;;;;5069684;28;20398;-57
2022/09/01 09:05:21;;;;;;;0.93;0.77;;;26.90;96.20;;;;;;5051068;28;20052;-60
2022/09/01 09:08:14;;;;;;;3.33;0.70;;;26.90;97.00;;;;;;5053876;28;20384;-58
2022/09/01 09:10:57;;;;;;;1.27;0.75;;;27.00;96.00;;;;;;5049775;28;20407;-60
2022/09/01 09:13:29;;;;;;;3.05;0.40;;;27.10;95.70;;;;;;5032898;28;20155;-61
2022/09/01 09:15:55;;;;;;;2.15;0.90;;;27.40;95.40;;;;;;5048853;28;20163;-61
2022/09/01 09:18:32;;;;;;;1.25;0.50;;;27.30;95.60;;;;;;5060261;28;20509;-61
2022/09/01 09:21:16;;;;;;;1.08;0.50;;;27.60;95.20;;;;;;5068817;28;20052;-60
2022/09/01 09:23:47;;;;;;;0.45;0.45;;;27.30;93.60;;;;;;5056798;28;20049;-60
2022/09/01 09:26:12;;;;;;;2.45;0.63;;;27.10;94.50;;;;;;5048385;28;20041;-61
2022/09/01 09:28:39;;;;;;;4.45;1.08;;;27.20;95.10;;;;;;5049355;28;20106;-62
2022/09/01 09:31:27;;;;;;;0.68;0.52;;;27.10;95.20;;;;;;5048899;28;20048;-57
2022/09/01 09:33:53;;;;;;;1.38;0.70;;;27.50;93.30;;;;;;5065574;28;20525;-57
2022/09/01 09:36:33;;;;;;;1.38;0.60;;;27.10;94.90;;;;;;5068039;28;20040;-57
2022/09/01 09:39:16;;;;;;;1.73;0.73;;;27.20;93.50;;;;;;5068842;28;20041;-57
2022/09/01 09:42:00;;;;;;;0.70;0.57;;;27.70;93.50;;;;;;5069371;28;20060;-56
2022/09/01 09:44:30;;;;;;;1.30;0.85;;;27.80;94.30;;;;;;5068447;28;20124;-56
2022/09/01 09:46:56;;;;;;;1.00;0.50;;;27.90;93.60;;;;;;5068417;28;20040;-57
2022/09/01 09:49:30;;;;;;;0.70;0.47;;;27.70;92.60;;;;;;5068897;28;20048;-56
2022/09/01 09:51:57;;;;;;;;;;;27.80;93.40;;;;;;5051274;28;20097;-56
2022/09/01 09:54:32;;;;;;;2.90;0.70;;;27.60;92.10;;;;;;5069090;28;19946;-56
2022/09/01 09:57:07;;;;;;;0.45;0.43;;;27.90;92.90;;;;;;5067657;28;20156;-57
2022/09/01 09:59:38;;;;;;;1.10;0.65;;;27.40;92.70;;;;;;5067531;28;20142;-57
2022/09/01 10:02:24;;;;;;;0.55;0.30;;;26.80;93.30;;;;;;5068499;28;20536;-56
2022/09/01 10:04:50;;;;;;;1.05;0.50;;;27.10;92.20;;;;;;5067188;28;20093;-56
2022/09/01 10:07:30;;;;;;;4.18;0.60;;;27.40;93.70;;;;;;5059648;28;20376;-56
2022/09/01 10:09:59;;;;;;;1.48;0.75;;;27.10;92.50;;;;;;5068135;28;20045;-57
2022/09/01 10:12:26;;;;;;;4.90;0.70;;;27.20;93.10;;;;;;5068881;28;20080;-58
2022/09/01 10:15:02;;;;;;;1.17;0.73;;;26.90;93.10;;;;;;5068818;28;20099;-56
2022/09/01 10:17:42;;;;;;;0.50;0.50;;;27.00;92.10;;;;;;5068505;28;20127;-57
2022/09/01 10:20:17;;;;;;;1.35;0.60;;;27.40;92.50;;;;;;5068464;28;20041;-57
2022/09/01 10:22:43;;;;;;;0.50;0.47;;;27.20;92.10;;;;;;5050208;28;20505;-57
2022/09/01 10:25:16;;;;;;;0.47;0.30;;;27.60;92.70;;;;;;5068461;28;20414;-60
2022/09/01 10:27:46;;;;;;;0.80;0.45;;;27.80;91.90;;;;;;5068422;28;20532;-57
2022/09/01 10:30:16;;;;;;;1.38;0.70;;;28.20;92.00;;;;;;5068394;28;20086;-61
2022/09/01 10:32:49;;;;;;;0.98;0.80;;;27.90;91.40;;;;;;5068676;28;20451;-57
2022/09/01 10:35:23;;;;;;;1.48;0.63;;;27.60;90.70;;;;;;5067802;28;20046;-57
2022/09/01 10:37:50;;;;;;;0.50;0.50;;;27.90;91.00;;;;;;5059127;28;20378;-56
2022/09/01 10:40:27;;;;;;;0.82;0.35;;;27.40;90.80;;;;;;5067462;28;20541;-58
2022/09/01 10:42:56;;;;;;;1.73;0.30;;;27.70;90.50;;;;;;5068494;28;20044;-58
2022/09/01 10:45:36;;;;;;;1.55;0.60;;;27.50;89.20;;;;;;5067314;28;20520;-57
2022/09/01 10:48:19;;;;;;;0.70;0.40;;;27.50;89.10;;;;;;5044439;28;20502;-56
2022/09/01 10:50:51;;;;;;;0.45;0.40;;;28.00;87.00;;;;;;5030361;28;20482;-57
2022/09/01 10:53:44;;;;;;;0.65;0.40;;;28.10;87.10;;;;;;5060545;28;20045;-56
2022/09/01 10:56:22;;;;;;;0.50;0.45;;;27.60;86.80;;;;;;5059687;28;20040;-57
2022/09/01 10:58:53;;;;;;;1.05;0.30;;;27.50;87.70;;;;;;5067803;28;20067;-59
2022/09/01 11:01:38;;;;;;;2.92;0.30;;;27.00;89.00;;;;;;5067288;28;20059;-59
2022/09/01 11:04:05;;;;;;;0.93;0.50;;;27.40;87.10;;;;;;5065791;28;20048;-57
2022/09/01 11:06:54;;;;;;;1.92;0.57;;;27.60;89.00;;;;;;5066931;28;20490;-58
2022/09/01 11:09:22;;;;;;;1.13;0.45;;;27.00;86.20;;;;;;5037062;28;20053;-57
2022/09/01 11:12:10;;;;;;;1.58;0.40;;;27.50;86.60;;;;;;5048037;28;20063;-58
2022/09/01 11:14:56;;;;;;;1.95;0.98;;;28.00;84.30;;;;;;5047624;28;20396;-57
2022/09/01 11:17:58;;;;;;;0.35;0.20;;;28.10;83.20;;;;;;5051540;28;20465;-57
2022/09/01 11:20:37;;;;;;;2.05;0.50;;;27.50;85.20;;;;;;4987941;28;20509;-58
2022/09/01 11:23:21;;;;;;;1.25;0.60;;;27.50;84.30;;;;;;5044541;28;20110;-57
2022/09/01 11:25:48;;;;;;;1.20;0.40;;;28.50;83.90;;;;;;5068426;28;20463;-56
2022/09/01 11:28:14;;;;;;;1.52;0.45;;;30.70;84.10;;;;;;5070730;28;20376;-56
2022/09/01 11:30:50;;;;;;;1.65;0.50;;;31.20;81.50;;;;;;5070869;28;20422;-57
2022/09/01 11:33:28;;;;;;;1.90;0.60;;;31.50;80.40;;;;;;5070841;28;20044;-56
2022/09/01 11:36:18;;;;;;;1.33;0.50;;;31.50;81.00;;;;;;5069386;28;20054;-56
2022/09/01 11:38:50;;;;;;;2.97;0.40;;;34.20;78.30;;;;;;5035325;28;20056;-56
2022/09/01 11:41:27;;;;;;;2.20;0.30;;;34.70;77.00;;;;;;5070754;28;20045;-57
2022/09/01 11:43:57;;;;;;;1.25;0.38;;;34.90;75.30;;;;;;5071315;28;20048;-57
2022/09/01 11:46:34;;;;;;;0.50;0.50;;;35.70;73.40;;;;;;5070588;28;20619;-56
2022/09/01 11:49:17;;;;;;;0.70;0.50;;;34.70;71.70;;;;;;5070781;28;20119;-61
2022/09/01 11:51:47;;;;;;;1.48;0.60;;;35.00;73.00;;;;;;5052408;28;20060;-59
2022/09/01 11:54:14;;;;;;;2.13;0.52;;;33.90;73.90;;;;;;5052818;28;20048;-58
2022/09/01 11:56:39;;;;;;;0.30;0.30;;;33.30;73.20;;;;;;5070986;28;20098;-56
2022/09/01 11:59:05;;;;;;;1.10;0.80;;;34.70;73.00;;;;;;5070649;28;20048;-57
2022/09/01 12:01:39;;;;;;;0.93;0.45;;;34.40;70.80;;;;;;5071287;28;20040;-58
2022/09/01 12:04:29;;;;;;;0.45;0.45;;;36.00;69.90;;;;;;5070421;28;20063;-57
2022/09/01 12:06:58;;;;;;;0.98;0.70;;;36.30;70.70;;;;;;5070724;28;20063;-57
2022/09/01 12:09:42;;;;;;;3.88;0.40;;;37.10;70.60;;;;;;5070616;28;20119;-58
2022/09/01 12:12:32;;;;;;;3.67;0.80;;;33.30;68.60;;;;;;5052905;28;20059;-62
2022/09/01 12:15:23;;;;;;;0.73;0.43;;;34.40;71.50;;;;;;5070398;28;20506;-59
2022/09/01 12:17:50;;;;;;;1.60;0.45;;;35.70;71.30;;;;;;5063709;28;20120;-57
2022/09/01 12:20:19;;;;;;;2.72;0.52;;;35.60;70.80;;;;;;5050640;28;20059;-59
2022/09/01 12:22:45;;;;;;;2.22;0.73;;;35.80;70.50;;;;;;5068835;28;20082;-61
2022/09/01 12:25:32;;;;;;;2.50;0.50;;;34.30;71.40;;;;;;5063862;28;20477;-60
2022/09/01 12:28:04;;;;;;;1.98;0.98;;;33.20;70.80;;;;;;5061586;28;20045;-60
2022/09/01 12:30:34;;;;;;;2.08;0.77;;;31.70;72.40;;;;;;5050526;28;20444;-59
2022/09/01 12:33:02;;;;;;;1.63;0.98;;;31.10;72.90;;;;;;5032498;28;20077;-61
2022/09/01 12:35:28;;;;;;;2.92;0.93;;;31.50;73.60;;;;;;5060423;28;20052;-60
2022/09/01 12:38:19;;;;;;;1.73;1.00;;;31.60;73.60;;;;;;5052548;28;20048;-59
2022/09/01 12:40:52;;;;;;;1.80;0.80;;;31.20;73.70;;;;;;5050218;28;20052;-58
2022/09/01 12:43:38;;;;;;;0.57;0.35;;;31.20;72.70;;;;;;5070416;28;20048;-61
2022/09/01 12:46:08;;;;;;;2.30;0.55;;;30.10;73.10;;;;;;5068402;28;20041;-59
2022/09/01 12:48:38;;;;;;;1.40;0.75;;;29.90;75.00;;;;;;5069344;28;20384;-60
2022/09/01 12:51:14;;;;;;;1.92;0.70;;;30.40;73.90;;;;;;5069901;28;20394;-60
2022/09/01 12:53:49;;;;;;;1.23;0.57;;;30.70;74.90;;;;;;5067205;28;20040;-59
2022/09/01 12:56:18;;;;;;;0.52;0.50;;;30.70;75.40;;;;;;5061039;28;20044;-60
2022/09/01 12:58:50;;;;;;;1.17;0.40;;;30.20;74.00;;;;;;5053894;28;20076;-60
2022/09/01 13:01:31;;;;;;;0.63;0.60;;;30.00;73.60;;;;;;5054278;28;20705;-58
2022/09/01 13:04:09;;;;;;;0.55;0.47;;;30.00;74.50;;;;;;5049606;28;20044;-59
2022/09/01 13:06:35;;;;;;;0.47;0.47;;;29.90;73.50;;;;;;5069630;28;20041;-60
2022/09/01 13:09:01;;;;;;;2.20;1.00;;;29.10;75.80;;;;;;5069612;28;20097;-57
2022/09/01 13:11:27;;;;;;;1.92;0.50;;;29.40;75.90;;;;;;5069449;28;20052;-59